createdAt,value
2023-01-02T00:00:37.138Z,98364.28
2023-01-02T00:03:12.103Z,98350.63
2023-01-02T00:05:41.826Z,98378.06
2023-01-02T00:08:15.929Z,98365.41
2023-01-02T00:13:21.091Z,98398.97
2023-01-02T00:15:52.221Z,98417.69
2023-01-02T00:18:21.702Z,98419.41
2023-01-02T00:20:51.690Z,98424.59
2023-01-02T00:23:20.835Z,98427.13
2023-01-02T00:25:55.599Z,98451.94
2023-01-02T00:28:24.900Z,98453.72
2023-01-02T00:30:56.014Z,98463.03
2023-01-02T00:33:25.246Z,98430.59
2023-01-02T00:36:00.612Z,98467.34
2023-01-02T00:38:30.686Z,98468.25
2023-01-02T00:40:59.828Z,98458.16
2023-01-02T00:43:28.997Z,98483.69
2023-01-02T00:46:00.397Z,98473.44
2023-01-02T00:48:36.100Z,98497.28
2023-01-02T00:51:05.471Z,98508.34
2023-01-02T00:53:34.948Z,98525.41
2023-01-02T00:56:04.305Z,98518.56
2023-01-02T00:58:33.498Z,98538.19
2023-01-02T01:01:05.835Z,98537.31
2023-01-02T01:03:35.228Z,98556.91
2023-01-02T01:08:44.257Z,98544.97
2023-01-02T01:11:16.052Z,98556.91
2023-01-02T01:13:44.999Z,98556.03
2023-01-02T01:16:18.022Z,98571.38
2023-01-02T01:18:58.544Z,98564.59
2023-01-02T01:21:27.779Z,98577.34
2023-01-02T01:23:57.784Z,98603.72
2023-01-02T01:26:32.200Z,98593.50
2023-01-02T01:29:01.577Z,98578.19
2023-01-02T01:31:33.180Z,98587.56
2023-01-02T01:34:02.461Z,98607.16
2023-01-02T01:36:33.332Z,98625.03
2023-01-02T01:39:02.482Z,98610.56
2023-01-02T01:41:36.564Z,98608.84
2023-01-02T01:44:35.329Z,98609.69
2023-01-02T01:49:42.185Z,98638.66
2023-01-02T01:52:20.155Z,98648.00
2023-01-02T01:54:55.973Z,98659.03
2023-01-02T01:57:31.983Z,98670.97
2023-01-02T02:00:02.731Z,98672.66
2023-01-02T02:02:39.160Z,98681.19
2023-01-02T02:05:11.248Z,98673.53
2023-01-02T02:07:47.053Z,98669.31
2023-01-02T02:10:16.311Z,98688.88
2023-01-02T02:12:45.677Z,98693.97
2023-01-02T02:18:19.419Z,98701.63
2023-01-02T02:20:55.873Z,98690.56
2023-01-02T02:24:03.485Z,98719.50
2023-01-02T02:27:07.869Z,98723.75
2023-01-02T02:30:13.555Z,98756.91
2023-01-02T02:33:02.050Z,98768.81
2023-01-02T02:35:43.432Z,98749.22
2023-01-02T02:38:20.553Z,98742.41
2023-01-02T02:40:58.216Z,98748.38
2023-01-02T02:43:43.994Z,98768.75
2023-01-02T02:46:21.330Z,98738.06
2023-01-02T02:49:07.762Z,98790.88
2023-01-02T02:51:43.603Z,98798.53
2023-01-02T02:54:22.375Z,98817.22
2023-01-02T02:56:54.321Z,98796.75
2023-01-02T02:59:23.609Z,98841.13
2023-01-02T03:01:53.431Z,98838.47
2023-01-02T03:04:25.440Z,98826.63
2023-01-02T03:07:00.830Z,98821.53
2023-01-02T03:09:45.909Z,98837.56
2023-01-02T03:12:26.684Z,98826.47
2023-01-02T03:15:11.659Z,98851.91
2023-01-02T03:17:51.512Z,98843.34
2023-01-02T03:20:27.098Z,98821.22
2023-01-02T03:23:06.347Z,98800.59
2023-01-02T03:25:38.524Z,98817.50
2023-01-02T03:28:11.317Z,98875.47
2023-01-02T03:30:53.282Z,98886.47
2023-01-02T03:33:27.734Z,98894.00
2023-01-02T03:36:03.288Z,98900.00
2023-01-02T03:38:38.408Z,98904.25
2023-01-02T03:41:18.350Z,98933.88
2023-01-02T03:43:56.841Z,98943.19
2023-01-02T03:46:33.156Z,98933.03
2023-01-02T03:49:08.199Z,98952.44
2023-01-02T03:51:44.865Z,98925.28
2023-01-02T03:54:19.038Z,98958.34
2023-01-02T03:56:59.127Z,98978.69
2023-01-02T03:59:38.409Z,98941.34
2023-01-02T04:02:14.927Z,98952.34
2023-01-02T04:04:51.088Z,98973.47
2023-01-02T04:07:29.188Z,98986.19
2023-01-02T04:09:59.921Z,98997.16
2023-01-02T04:12:37.611Z,98978.44
2023-01-02T04:15:09.555Z,98981.81
2023-01-02T04:17:41.233Z,98999.63
2023-01-02T04:20:16.532Z,98986.75
2023-01-02T04:22:52.110Z,99005.38
2023-01-02T04:25:45.118Z,98998.53
2023-01-02T04:28:19.667Z,99000.13
2023-01-02T04:30:54.972Z,99006.88
2023-01-02T04:33:31.768Z,98993.84
2023-01-02T04:36:30.286Z,99026.25
2023-01-02T04:39:01.370Z,99016.91
2023-01-02T04:41:30.819Z,99016.00
2023-01-02T04:44:00.786Z,99033.66
2023-01-02T04:46:31.082Z,99031.03
2023-01-02T04:49:01.514Z,99023.47
2023-01-02T04:51:30.728Z,99011.66
2023-01-02T04:54:06.748Z,99042.13
2023-01-02T04:56:35.910Z,99025.84
2023-01-02T04:59:05.014Z,99027.78
2023-01-02T05:01:34.314Z,99015.97
2023-01-02T05:04:03.572Z,99074.47
2023-01-02T05:06:34.730Z,99086.13
2023-01-02T05:09:05.931Z,99085.41
2023-01-02T05:14:17.182Z,99089.66
2023-01-02T05:16:46.347Z,99095.56
2023-01-02T05:19:15.780Z,99101.44
2023-01-02T05:22:02.857Z,99102.19
2023-01-02T05:24:39.751Z,99131.94
2023-01-02T05:27:08.861Z,99121.63
2023-01-02T05:29:38.026Z,99134.31
2023-01-02T05:32:14.078Z,99119.91
2023-01-02T05:34:43.419Z,99148.66
2023-01-02T05:37:12.983Z,99157.88
2023-01-02T05:39:44.068Z,99151.97
2023-01-02T05:42:13.330Z,99135.00
2023-01-02T05:44:42.454Z,99165.41
2023-01-02T05:47:17.366Z,99168.88
2023-01-02T05:49:46.681Z,99188.25
2023-01-02T05:52:16.073Z,99185.53
2023-01-02T05:54:47.235Z,99189.81
2023-01-02T05:57:17.173Z,99181.19
2023-01-02T05:59:52.283Z,99206.00
2023-01-02T06:02:21.679Z,99200.94
2023-01-02T06:04:50.894Z,99184.84
2023-01-02T06:07:25.287Z,99211.81
2023-01-02T06:09:56.886Z,99211.94
2023-01-02T06:12:26.404Z,99223.72
2023-01-02T06:14:55.545Z,99227.97
2023-01-02T06:17:24.673Z,99254.22
2023-01-02T06:19:58.910Z,99225.97
2023-01-02T06:22:28.072Z,99260.13
2023-01-02T06:24:59.068Z,99258.19
2023-01-02T06:27:28.214Z,99262.53
2023-01-02T06:29:57.405Z,99268.53
2023-01-02T06:32:32.200Z,99265.22
2023-01-02T06:35:01.326Z,99279.47
2023-01-02T06:37:32.147Z,99266.81
2023-01-02T06:40:03.355Z,99288.91
2023-01-02T06:42:33.339Z,99290.72
2023-01-02T06:45:02.520Z,99305.94
2023-01-02T06:50:12.474Z,99307.56
2023-01-02T06:52:41.649Z,99310.94
2023-01-02T06:55:12.849Z,99273.53
2023-01-02T06:57:42.103Z,99329.88
2023-01-02T07:00:12.862Z,99311.22
2023-01-02T07:02:42.474Z,99284.19
2023-01-02T07:05:12.454Z,99294.81
2023-01-02T07:07:41.713Z,99356.19
2023-01-02T07:10:18.706Z,99349.44
2023-01-02T07:12:48.132Z,99334.22
2023-01-02T07:15:17.359Z,99317.75
2023-01-02T07:17:46.523Z,99363.84
2023-01-02T07:20:16.098Z,99374.88
2023-01-02T07:22:45.518Z,99383.41
2023-01-02T07:25:15.545Z,99337.69
2023-01-02T07:27:46.745Z,99387.84
2023-01-02T07:30:21.038Z,99369.25
2023-01-02T07:32:50.257Z,99380.75
2023-01-02T07:35:19.524Z,99383.31
2023-01-02T07:37:48.730Z,99381.06
2023-01-02T07:40:26.038Z,99405.63
2023-01-02T07:43:01.450Z,99349.00
2023-01-02T07:45:30.749Z,99385.19
2023-01-02T07:48:00.376Z,99401.81
2023-01-02T07:50:34.705Z,99410.16
2023-01-02T07:53:03.863Z,99366.56
2023-01-02T07:55:32.956Z,99418.66
2023-01-02T07:58:04.294Z,99416.88
2023-01-02T08:00:33.470Z,99355.44
2023-01-02T08:03:10.682Z,99391.34
2023-01-02T08:05:39.935Z,99405.28
2023-01-02T08:08:09.182Z,99359.00
2023-01-02T08:10:39.245Z,99417.28
2023-01-02T08:13:10.676Z,99423.28
2023-01-02T08:15:40.058Z,99425.88
2023-01-02T08:18:09.526Z,99425.88
2023-01-02T08:20:38.624Z,99415.31
2023-01-02T08:23:07.811Z,99428.34
2023-01-02T08:25:36.924Z,99443.66
2023-01-02T08:28:06.577Z,99410.66
2023-01-02T08:30:37.954Z,99437.91
2023-01-02T08:33:12.258Z,99459.91
2023-01-02T08:35:41.846Z,99459.75
2023-01-02T08:38:10.988Z,99395.03
2023-01-02T08:40:40.797Z,99429.59
2023-01-02T08:43:10.444Z,99454.06
2023-01-02T08:45:43.804Z,99439.50
2023-01-02T08:48:20.251Z,99425.41
2023-01-02T08:50:51.394Z,99440.22
2023-01-02T08:53:20.632Z,99446.56
2023-01-02T08:55:50.038Z,99445.00
2023-01-02T08:58:19.468Z,99476.22
2023-01-02T09:00:54.085Z,99462.63
2023-01-02T09:03:23.444Z,99461.13
2023-01-02T09:05:52.765Z,99454.41
2023-01-02T09:08:22.082Z,99470.38
2023-01-02T09:10:56.307Z,99477.34
2023-01-02T09:13:25.602Z,99455.31
2023-01-02T09:15:56.677Z,99472.25
2023-01-02T09:18:29.580Z,99467.09
2023-01-02T09:20:59.150Z,99490.13
2023-01-02T09:23:28.261Z,99485.97
2023-01-02T09:26:00.866Z,99456.34
2023-01-02T09:28:30.676Z,99488.59
2023-01-02T09:31:05.059Z,99484.91
2023-01-02T09:33:36.884Z,99502.88
2023-01-02T09:36:07.495Z,99497.91
2023-01-02T09:38:37.208Z,99464.81
2023-01-02T09:41:16.812Z,99501.34
2023-01-02T09:43:55.590Z,99504.69
2023-01-02T09:46:33.475Z,99474.09
2023-01-02T09:49:04.449Z,99497.78
2023-01-02T09:51:39.092Z,99496.03
2023-01-02T09:54:16.188Z,99513.34
2023-01-02T09:56:48.174Z,99526.97
2023-01-02T09:59:19.361Z,99506.72
2023-01-02T10:02:01.383Z,99539.69
2023-01-02T10:04:47.481Z,99543.94
2023-01-02T10:07:25.120Z,99514.31
2023-01-02T10:09:59.459Z,99538.00
2023-01-02T10:12:39.543Z,99516.78
2023-01-02T10:15:15.541Z,99526.16
2023-01-02T10:17:50.801Z,99515.81
2023-01-02T10:20:30.119Z,99543.66
2023-01-02T10:23:03.194Z,99530.03
2023-01-02T10:25:38.300Z,99532.53
2023-01-02T10:28:25.543Z,99544.63
2023-01-02T10:31:05.520Z,99547.50
2023-01-02T10:33:46.925Z,99556.56
2023-01-02T10:36:26.502Z,99575.09
2023-01-02T10:38:59.547Z,99564.97
2023-01-02T10:41:30.039Z,99591.13
2023-01-02T10:44:02.622Z,99591.84
2023-01-02T10:46:39.266Z,99576.84
2023-01-02T10:49:16.798Z,99480.00
2023-01-02T10:51:52.586Z,99590.22
2023-01-02T10:54:21.745Z,99546.94
2023-01-02T10:56:54.601Z,99559.00
2023-01-02T10:59:25.992Z,99603.41
2023-01-02T11:01:56.948Z,99578.25
2023-01-02T11:04:33.392Z,99606.94
2023-01-02T11:07:04.599Z,99633.25
2023-01-02T11:09:36.008Z,99630.63
2023-01-02T11:12:12.860Z,99616.16
2023-01-02T11:14:42.760Z,99593.16
2023-01-02T11:17:16.256Z,99638.97
2023-01-02T11:19:50.660Z,99584.03
2023-01-02T11:22:22.407Z,99616.78
2023-01-02T11:25:00.697Z,99666.81
2023-01-02T11:27:34.082Z,99665.09
2023-01-02T11:30:11.530Z,99696.38
2023-01-02T11:32:42.772Z,99665.34
2023-01-02T11:35:35.839Z,99705.50
2023-01-02T11:38:05.076Z,99652.38
2023-01-02T11:40:35.393Z,99718.13
2023-01-02T11:43:27.464Z,99675.28
2023-01-02T11:46:02.323Z,99688.19
2023-01-02T11:48:32.062Z,99679.72
2023-01-02T11:51:03.741Z,99687.13
2023-01-02T11:53:45.536Z,99699.00
2023-01-02T11:56:19.809Z,99713.22
2023-01-02T11:58:57.242Z,99680.94
2023-01-02T12:01:32.815Z,99713.13
2023-01-02T12:04:09.555Z,99729.31
2023-01-02T12:06:52.520Z,99721.69
2023-01-02T12:09:31.939Z,99722.34
2023-01-02T12:12:16.261Z,99705.16
2023-01-02T12:15:10.613Z,99651.25
2023-01-02T12:17:48.334Z,99760.53
2023-01-02T12:20:37.570Z,99760.38
2023-01-02T12:23:25.312Z,99717.16
2023-01-02T12:26:07.317Z,99737.59
2023-01-02T12:29:45.991Z,99744.28
2023-01-02T12:32:40.777Z,99755.09
2023-01-02T12:35:27.696Z,99734.94
2023-01-02T12:37:59.922Z,99687.19
2023-01-02T12:40:53.322Z,99777.72
2023-01-02T12:43:53.565Z,99754.88
2023-01-02T12:46:36.221Z,99779.56
2023-01-02T12:54:41.117Z,99786.41
2023-01-02T12:57:24.468Z,99773.63
2023-01-02T13:00:20.462Z,99743.50
2023-01-02T13:03:06.486Z,99783.88
2023-01-02T13:05:42.232Z,99791.47
2023-01-02T13:08:19.302Z,99806.81
2023-01-02T13:10:56.526Z,99794.00
2023-01-02T13:13:33.801Z,99822.91
2023-01-02T13:16:18.982Z,99815.88
2023-01-02T13:19:08.876Z,99827.84
2023-01-02T13:21:48.257Z,99805.31
2023-01-02T13:24:23.312Z,99823.22
2023-01-02T13:26:56.246Z,99812.00
2023-01-02T13:29:31.054Z,99820.22
2023-01-02T13:32:00.508Z,99794.31
2023-01-02T13:34:32.244Z,99826.50
2023-01-02T13:37:05.552Z,99827.16
2023-01-02T13:39:48.895Z,99832.09
2023-01-02T13:45:34.281Z,99849.88
2023-01-02T13:48:07.175Z,99825.56
2023-01-02T13:50:38.438Z,99812.13
2023-01-02T13:53:22.647Z,99856.13
2023-01-02T13:56:07.748Z,99831.19
2023-01-02T13:58:52.412Z,99848.91
2023-01-02T14:01:42.895Z,99853.16
2023-01-02T14:04:36.368Z,99842.41
2023-01-02T14:07:40.726Z,99862.50
2023-01-02T14:10:37.899Z,99850.31
2023-01-02T14:13:14.410Z,99859.41
2023-01-02T14:16:18.310Z,99873.84
2023-01-02T14:19:05.249Z,99829.88
2023-01-02T14:21:47.354Z,99849.44
2023-01-02T14:24:38.524Z,99831.06
2023-01-02T14:27:23.148Z,99866.28
2023-01-02T14:29:55.223Z,99874.94
2023-01-02T14:32:29.009Z,99868.25
2023-01-02T14:35:01.151Z,99862.25
2023-01-02T14:37:38.878Z,99860.47
2023-01-02T14:40:20.325Z,99862.16
2023-01-02T14:43:14.367Z,99879.56
2023-01-02T14:45:51.412Z,99892.28
2023-01-02T14:48:30.524Z,99894.69
2023-01-02T14:51:09.988Z,99869.84
2023-01-02T14:53:45.983Z,99862.75
2023-01-02T14:56:20.297Z,99899.84
2023-01-02T14:58:56.318Z,99872.72
2023-01-02T15:01:42.297Z,99877.19
2023-01-02T15:04:23.731Z,99893.38
2023-01-02T15:07:10.222Z,99888.56
2023-01-02T15:09:53.498Z,99876.56
2023-01-02T15:12:39.394Z,99898.66
2023-01-02T15:15:13.269Z,99910.22
2023-01-02T15:17:43.816Z,99899.16
2023-01-02T15:20:21.160Z,99877.28
2023-01-02T15:22:58.553Z,99916.34
2023-01-02T15:25:40.412Z,99896.28
2023-01-02T15:28:25.760Z,99915.59
2023-01-02T15:31:06.543Z,99900.66
2023-01-02T15:33:36.224Z,99909.41
2023-01-02T15:36:10.881Z,99922.81
2023-01-02T15:38:42.971Z,99925.28
2023-01-02T15:41:18.947Z,99934.47
2023-01-02T15:44:02.329Z,99909.88
2023-01-02T15:46:31.747Z,99898.19
2023-01-02T15:49:02.529Z,99934.47
2023-01-02T15:51:40.619Z,99930.31
2023-01-02T15:54:16.203Z,99903.78
2023-01-02T15:56:45.468Z,99926.69
2023-01-02T15:59:28.317Z,99945.25
2023-01-02T16:02:03.662Z,99913.69
2023-01-02T16:04:37.950Z,99934.38
2023-01-02T16:07:21.799Z,99951.78
2023-01-02T16:09:56.852Z,99901.69
2023-01-02T16:12:26.565Z,99940.47
2023-01-02T16:14:58.259Z,99931.19
2023-01-02T16:17:29.642Z,99948.56
2023-01-02T16:20:01.071Z,99942.06
2023-01-02T16:22:43.074Z,99941.44
2023-01-02T16:25:20.430Z,99924.44
2023-01-02T16:27:53.988Z,99945.19
2023-01-02T16:30:33.094Z,99974.44
2023-01-02T16:33:04.168Z,99953.19
2023-01-02T16:35:36.554Z,99953.28
2023-01-02T16:38:07.148Z,99967.84
2023-01-02T16:41:01.255Z,99960.00
2023-01-02T16:43:36.760Z,99965.97
2023-01-02T16:46:20.807Z,99968.53
2023-01-02T16:48:50.244Z,99981.31
2023-01-02T16:51:19.588Z,99923.34
2023-01-02T16:53:48.769Z,99965.25
2023-01-02T16:56:20.080Z,99973.81
2023-01-02T16:58:49.381Z,99967.84
2023-01-02T17:01:20.155Z,99976.88
2023-01-02T17:06:30.935Z,99951.22
2023-01-02T17:09:00.128Z,99970.38
2023-01-02T17:11:31.613Z,99962.94
2023-01-02T17:14:06.003Z,99971.22
2023-01-02T17:16:35.228Z,99966.38
2023-01-02T17:19:04.418Z,99945.97
2023-01-02T17:21:33.614Z,99956.38
2023-01-02T17:24:03.077Z,99947.94
2023-01-02T17:26:35.748Z,99956.50
2023-01-02T17:29:04.954Z,99935.25
2023-01-02T17:31:34.126Z,99938.53
2023-01-02T17:34:08.745Z,99940.38
2023-01-02T17:36:43.350Z,99933.59
2023-01-02T17:39:12.681Z,99946.22
2023-01-02T17:41:43.740Z,99948.31
2023-01-02T17:44:13.234Z,99943.88
2023-01-02T17:47:15.530Z,99943.88
2023-01-02T17:49:41.792Z,99904.91
2023-01-02T17:52:12.042Z,99952.50
2023-01-02T17:54:41.661Z,99946.53
2023-01-02T17:57:13.112Z,99938.97
2023-01-02T17:59:43.122Z,99945.56
2023-01-02T18:02:16.789Z,99949.38
2023-01-02T18:04:52.769Z,99920.44
2023-01-02T18:07:28.652Z,99937.44
2023-01-02T18:10:08.167Z,99941.28
2023-01-02T18:12:51.093Z,99943.88
2023-01-02T18:15:22.834Z,99933.69
2023-01-02T18:17:52.449Z,99910.41
2023-01-02T18:20:23.026Z,99942.59
2023-01-02T18:22:52.422Z,99931.69
2023-01-02T18:25:28.869Z,99954.81
2023-01-02T18:28:03.167Z,99949.81
2023-01-02T18:30:32.470Z,99939.44
2023-01-02T18:33:06.458Z,99952.47
2023-01-02T18:38:32.420Z,99926.44
2023-01-02T18:41:14.679Z,99949.56
2023-01-02T18:43:49.209Z,99957.84
2023-01-02T18:46:20.950Z,99953.38
2023-01-02T18:48:51.603Z,99942.56
2023-01-02T18:51:23.691Z,99911.22
2023-01-02T18:53:54.368Z,99926.56
2023-01-02T18:56:27.069Z,99957.00
2023-01-02T18:59:09.078Z,99935.72
2023-01-02T19:01:44.395Z,99907.38
2023-01-02T19:04:27.855Z,99935.00
2023-01-02T19:07:03.618Z,99926.56
2023-01-02T19:09:38.886Z,99925.69
2023-01-02T19:12:41.849Z,99949.63
2023-01-02T19:15:35.993Z,99930.34
2023-01-02T19:18:29.399Z,99934.50
2023-01-02T19:21:05.331Z,99941.66
2023-01-02T19:23:43.147Z,99955.84
2023-01-02T19:26:20.832Z,99934.59
2023-01-02T19:28:57.185Z,99957.59
2023-01-02T19:31:31.259Z,99946.25
2023-01-02T19:34:03.110Z,99955.19
2023-01-02T19:36:41.622Z,99950.13
2023-01-02T19:39:26.780Z,99924.69
2023-01-02T19:42:13.889Z,99951.84
2023-01-02T19:44:43.245Z,99942.50
2023-01-02T19:47:14.454Z,99958.44
2023-01-02T19:49:46.935Z,99919.34
2023-01-02T19:52:17.173Z,99954.56
2023-01-02T19:54:47.648Z,99948.41
2023-01-02T19:57:19.137Z,99948.06
2023-01-02T19:59:49.507Z,99954.81
2023-01-02T20:02:22.791Z,99966.88
2023-01-02T20:04:53.234Z,99967.50
2023-01-02T20:07:23.911Z,99969.84
2023-01-02T20:09:53.330Z,99976.81
2023-01-02T20:12:33.897Z,99970.94
2023-01-02T20:15:05.691Z,99978.50
2023-01-02T20:17:38.264Z,99978.09
2023-01-02T20:20:10.056Z,99994.44
2023-01-02T20:22:40.884Z,99993.69
2023-01-02T20:25:10.370Z,100000.72
2023-01-02T20:27:39.853Z,99995.78
2023-01-02T20:30:20.317Z,99989.84
2023-01-02T20:33:05.356Z,99996.25
2023-01-02T20:35:35.152Z,100010.72
2023-01-02T20:38:04.295Z,100009.66
2023-01-02T20:40:33.447Z,100002.84
2023-01-02T20:43:04.147Z,100013.19
2023-01-02T20:45:33.397Z,100013.25
2023-01-02T20:48:04.626Z,99999.00
2023-01-02T20:50:36.484Z,100004.50
2023-01-02T20:53:06.324Z,99998.03
2023-01-02T20:55:38.822Z,99984.34
2023-01-02T21:00:56.034Z,99983.81
2023-01-02T21:03:27.404Z,99985.75
2023-01-02T21:06:01.892Z,99985.19
2023-01-02T21:08:31.683Z,99981.25
2023-01-02T21:11:01.138Z,99962.13
2023-01-02T21:13:30.928Z,99971.41
2023-01-02T21:16:00.615Z,99984.94
2023-01-02T21:18:34.517Z,99992.56
2023-01-02T21:21:06.536Z,99981.81
2023-01-02T21:23:37.660Z,99981.56
2023-01-02T21:26:08.861Z,99982.75
2023-01-02T21:28:43.645Z,99986.94
2023-01-02T21:31:13.615Z,99989.41
2023-01-02T21:33:45.329Z,99973.47
2023-01-02T21:36:15.206Z,99975.09
2023-01-02T21:38:44.750Z,99942.63
2023-01-02T21:41:27.470Z,99971.28
2023-01-02T21:43:56.786Z,99988.63
2023-01-02T21:46:25.963Z,99970.84
2023-01-02T21:48:57.396Z,99965.91
2023-01-02T21:51:32.420Z,99975.38
2023-01-02T21:54:02.319Z,99948.81
2023-01-02T21:56:32.692Z,99961.81
2023-01-02T21:59:07.807Z,99954.13
2023-01-02T22:01:37.752Z,99929.91
2023-01-02T22:04:09.101Z,99904.91
2023-01-02T22:06:57.107Z,99944.00
2023-01-02T22:09:30.122Z,99920.50
2023-01-02T22:12:06.593Z,99924.97
2023-01-02T22:14:42.160Z,99940.03
2023-01-02T22:17:12.491Z,99918.72
2023-01-02T22:19:43.687Z,99934.34
2023-01-02T22:22:12.898Z,99932.59
2023-01-02T22:24:47.552Z,99921.88
2023-01-02T22:27:19.465Z,99921.94
2023-01-02T22:30:20.555Z,99919.81
2023-01-02T22:32:38.476Z,99924.66
2023-01-02T22:35:16.355Z,99909.13
2023-01-02T22:37:45.661Z,99918.94
2023-01-02T22:40:17.899Z,99921.53
2023-01-02T22:43:05.692Z,99931.59
2023-01-02T22:45:41.485Z,99919.13
2023-01-02T22:48:27.122Z,99878.75
2023-01-02T22:51:01.183Z,99910.06
2023-01-02T22:53:37.102Z,99914.31
2023-01-02T22:56:14.514Z,99916.06
2023-01-02T22:58:49.972Z,99875.75
2023-01-02T23:01:21.295Z,99892.81
2023-01-02T23:03:52.144Z,99889.19
2023-01-02T23:06:23.644Z,99890.97
2023-01-02T23:08:53.541Z,99890.22
2023-01-02T23:11:27.669Z,99889.50
2023-01-02T23:13:57.260Z,99892.81
2023-01-02T23:16:39.600Z,99871.38
2023-01-02T23:19:18.586Z,99864.28
2023-01-02T23:21:51.464Z,99880.09
2023-01-02T23:24:28.241Z,99876.06
2023-01-02T23:26:59.694Z,99882.94
2023-01-02T23:29:30.154Z,99860.69
2023-01-02T23:31:59.606Z,99868.56
2023-01-02T23:34:30.766Z,99863.47
2023-01-02T23:37:03.326Z,99855.97
2023-01-02T23:39:39.517Z,99861.16
2023-01-02T23:42:09.181Z,99856.88
2023-01-02T23:44:39.068Z,99855.91
2023-01-02T23:47:10.853Z,99846.72
2023-01-02T23:49:43.882Z,99834.81
2023-01-02T23:52:16.712Z,99811.59
2023-01-02T23:54:45.871Z,99817.88
2023-01-02T23:57:14.990Z,99824.06
2023-01-02T23:59:49.186Z,99823.28
